Hovedside
METAR-TAF:

METAR-TAF

Lufthavner :

Sundsvall-Härnösand, Sverige

Sundsvall Timrå lufthavn

breddegrad: 62-32N, lengdegrad: 017-27E, høyde over havet: 4 m

Gjeldene værobservasjon

Denne rapporten ble laget for 35 minutter siden, klokken 06:50 UTC
Vind 1 kt fra skiftende retning
Temperatur 6°C
Luftfuktighet 81%
Trykk 1003 hPa
Sikt 10 km eller mer
ingen skyer under 1500 m og ingen bygeskyer

METAR: ESNN 210650Z VRB01KT CAVOK 06/03 Q1003

Tid: 09:25 (07:25 UTC)

Varsel

Denne rapporten ble laget for 1 time og 55 minutter siden, klokken 05:30 UTC
Varsel gyldig fra 21. klokken 06 UTC til 21. klokken 08 UTC
Vind 2 kt fra skiftende retning
Sikt 10 km eller mer
ingen skyer under 1500 m og ingen bygeskyer
Blir
fra 21. klokken 06 UTC til 21. klokken 08 UTC
Vind 13 kt fra Nord-nordvest med vindkast opp mot 23 kt

TAF: ESNN 210530Z 2106/2108 VRB02KT CAVOK BECMG 2106/2108 34013G23KT

Værobservasjoner og værvarsel for over 4000 flyplasser (METAR- og TAF-rapporter).

Tilgjengelige stasjoner er representert av de røde og gule prikkene på kartet.

Hold musepekeren over prikken for å se navnet på stasjonen.

Klikk så for å se værobservasjoner og -varsler.

For å forandre kartet kan du klikke på den grønne knappen med svart kryss for å zoome inn, på den grønne knappen med strek for å zoome ut, eller på de grønne pilene for å se tilstøtende kart.


METAR-TAF: